Storm Events Database

Event Details

Event Flash Flood
-- Flood Cause Heavy Rain
State MISSISSIPPI
County/Area CARROLL
WFO JAN
Begin Date 05/02/2010 10:30:00 CST-6
Begin Range 1
Begin Azimuth E
Begin Location NORTH CARROLLTON
Begin Lat/Lon 33.52/-89.91
End Date 05/02/2010 11:10:00 CST-6
End Range 1
End Azimuth SW
End Location DONLEY
End Lat/Lon 33.52/-90.04
Deaths Direct/Indirect 0/0 (fatality details below, when available...)
Injuries Direct/Indirect 0/0
Property Damage 400.00K
Crop Damage 0.00K
Episode Narrative A slow moving weather pattern developed during the first two days of May and supported a couple rounds of thunderstorms both on Saturday and Sunday. While our area was spared the larger severe weather outbreak, we did manage to have a few rounds of severe storms on Saturday evening and then again Sunday afternoon. The most significant storms occurred Sunday afternoon and brought large hail, between golf ball and baseball sized, to portions of central Mississippi.
Event Narrative Several inches of rain fell across Carroll County which flooded several roads. A few roads were washed out with one culvert washed out in North Carrollton. A business sustained minor flood damage. Across the northwest portion of the county, a few roads were under water.


All events for this episode:

Location County/Zone St. Date Time T.Z. Type Mag Dth Inj PrD CrD
Totals: 0 1 1.551M 0.00K
WILLIAMSVILLE ATTALA CO. MS 05/01/2010 19:14 CST-6 Hail 1.00 in. 0 0 0.00K 0.00K
ETHEL ATTALA CO. MS 05/01/2010 19:22 CST-6 Hail 0.75 in. 0 0 0.00K 0.00K
LILLIAN SCOTT CO. MS 05/01/2010 19:31 CST-6 Thunderstorm Wind 50 kts. EG 0 0 0.00K 0.00K
EUPORA WEBSTER CO. MS 05/01/2010 19:50 CST-6 Thunderstorm Wind 60 kts. EG 0 0 2.00K 0.00K
FAME WEBSTER CO. MS 05/01/2010 19:57 CST-6 Thunderstorm Wind 52 kts. EG 0 0 0.00K 0.00K
GREENWOOD LEFLORE CO. MS 05/02/2010 09:16 CST-6 Flash Flood 0 0 12.00K 0.00K
LAUREL JONES CO. MS 05/02/2010 09:36 CST-6 Thunderstorm Wind 55 kts. EG 0 0 300.00K 0.00K
NORTH CARROLLTON CARROLL CO. MS 05/02/2010 10:30 CST-6 Flash Flood 0 0 400.00K 0.00K
EUPORA WEBSTER CO. MS 05/02/2010 11:00 CST-6 Flash Flood 0 1 800.00K 0.00K
NEWPORT ATTALA CO. MS 05/02/2010 15:38 CST-6 Hail 1.50 in. 0 0 0.00K 0.00K
KOSCIUSKO ATTALA CO. MS 05/02/2010 15:55 CST-6 Hail 1.00 in. 0 0 0.00K 0.00K
MC COOL ATTALA CO. MS 05/02/2010 16:13 CST-6 Hail 2.50 in. 0 0 2.00K 0.00K
WEIR CHOCTAW CO. MS 05/02/2010 16:18 CST-6 Hail 2.00 in. 0 0 3.00K 0.00K
ACKERMAN CHOCTAW CO. MS 05/02/2010 16:24 CST-6 Hail 1.75 in. 0 0 1.00K 0.00K
STURGIS OKTIBBEHA CO. MS 05/02/2010 16:33 CST-6 Hail 1.75 in. 0 0 1.00K 0.00K
LONGVIEW OKTIBBEHA CO. MS 05/02/2010 16:38 CST-6 Hail 1.25 in. 0 0 0.00K 0.00K
ADATON OKTIBBEHA CO. MS 05/02/2010 16:41 CST-6 Hail 1.00 in. 0 0 0.00K 0.00K
STARKVILLE OKTIBBEHA CO. MS 05/02/2010 16:50 CST-6 Hail 1.25 in. 0 0 0.00K 0.00K
BARNETT RES EAST MADISON CO. MS 05/02/2010 16:55 CST-6 Hail 1.00 in. 0 0 0.00K 0.00K
FARMHAVEN MADISON CO. MS 05/02/2010 17:05 CST-6 Hail 2.00 in. 0 0 1.00K 0.00K
OFAHOMA LEAKE CO. MS 05/02/2010 17:13 CST-6 Hail 1.25 in. 0 0 0.00K 0.00K
CARTHAGE LEAKE CO. MS 05/02/2010 17:25 CST-6 Hail 2.75 in. 0 0 25.00K 0.00K
RENFROE LEAKE CO. MS 05/02/2010 17:30 CST-6 Hail 2.75 in. 0 0 3.00K 0.00K
CARTHAGE LEAK CO ARP LEAKE CO. MS 05/02/2010 17:30 CST-6 Hail 2.00 in. 0 0 0.00K 0.00K
ETHEL ATTALA CO. MS 05/02/2010 17:43 CST-6 Hail 2.00 in. 0 0 1.00K 0.00K
ALICE NESHOBA CO. MS 05/02/2010 17:43 CST-6 Hail 1.75 in. 0 0 0.00K 0.00K
NOXAPATER WINSTON CO. MS 05/02/2010 17:55 CST-6 Hail 1.00 in. 0 0 0.00K 0.00K
LOUISVILLE WINSTON CO. MS 05/02/2010 18:03 CST-6 Hail 1.50 in. 0 0 0.00K 0.00K
SESSUMS OKTIBBEHA CO. MS 05/02/2010 18:30 CST-6 Hail 1.75 in. 0 0 0.00K 0.00K
ARTESIA LOWNDES CO. MS 05/02/2010 18:31 CST-6 Hail 1.00 in. 0 0 0.00K 0.00K
INTERSTATE CITY LOWNDES CO. MS 05/02/2010 18:50 CST-6 Hail 1.00 in. 0 0 0.00K 0.00K
Totals: 0 1 1.551M 0.00K